Tecolote Canyon (492, 23013) Station Data

Red Flag Warning: No
Fire Weather Zone: 243
SDGE Region: Beach Cities
Lat/Lon: 32.791/-117.184

Observations

Time Wind Speed/Gust Temp(F) RH Fuel Moist Fuel Temp(F) Dewpt(F) Tmax(F) Tmin(F) Accum Precip 10-min Precip SL Press(mb)
4/26 2:30am 14 1 G 1 57° 88% - - 53° 59° 56.1° - - -
4/26 2:20am 132 1 G 2 57° 87% - - 53° 59° 56.3° - - -
4/26 2:10am 70 1 G 2 57° 87% - - 53° 59° 56.3° - - -
4/26 2:00am 55 2 G 3 57° 87% - - 54° 59° 56.3° - - -
4/26 1:50am 38 1 G 2 57° 87% - - 53° 59° 56.3° - - -
4/26 1:40am 37 1 G 2 57° 87% - - 53° 59° 56.3° - - -
4/26 1:30am 122 0 G 1 57° 86% - - 53° 59° 56.4° - - -
4/26 1:20am 146 0 G 1 57° 86% - - 53° 59° 56.6° - - -
4/26 1:10am 148 1 G 2 58° 85% - - 53° 59° 57° - - -
4/26 1:00am 168 1 G 2 58° 85% - - 53° 59° 57° - - -
4/26 12:50am 181 0 G 1 58° 84% - - 53° 59° 57° - - -
4/26 12:40am 342 0 G 0 58° 84% - - 53° 59° 57° - - -
4/26 12:30am 347 1 G 2 58° 85% - - 53° 59° 57° - - -
4/26 12:20am 333 1 G 2 58° 85% - - 53° 59° 57° - - -
4/26 12:10am 302 1 G 2 58° 83% - - 53° 59° 57° - - -
4/26 12:00am 118 1 G 2 59° 83% - - 53° 67.7° 57.8° - - -
4/25 11:50pm 153 2 G 2 59° 82% - - 54° 67.7° 57.8° - - -
4/25 11:40pm 159 2 G 4 59° 82% - - 54° 67.7° 57.8° - - -
4/25 11:30pm 178 1 G 1 59° 82% - - 54° 67.7° 57.8° - - -
4/25 11:20pm 177 0 G 1 59° 82% - - 54° 67.7° 57.8° - - -
4/25 11:10pm 217 1 G 3 59° 81% - - 54° 67.7° 57.8° - - -
4/25 11:00pm 226 1 G 2 59° 81% - - 54° 67.7° 57.8° - - -
4/25 10:50pm 184 2 G 2 59° 82% - - 54° 67.7° 57.8° - - -
4/25 10:40pm 175 1 G 3 59° 83% - - 54° 67.7° 57.8° - - -
4/25 10:30pm 175 1 G 4 59° 83% - - 54° 67.7° 57.8° - - -
4/25 10:20pm 215 1 G 2 59° 83% - - 54° 67.7° 57.8° - - -
4/25 10:10pm 229 1 G 3 59° 83% - - 54° 67.7° 57.8° - - -
4/25 10:00pm 311 0 G 1 59° 82% - - 54° 67.7° 57.8° - - -
4/25 9:50pm 72 0 G 1 59° 82% - - 54° 67.7° 57.8° - - -
4/25 9:40pm 0 0 G 0 60° 81% - - 54° 67.7° 57.8° - - -
4/25 9:30pm 238 1 G 4 60° 80% - - 54° 67.7° 57.8° - - -
4/25 9:20pm 176 1 G 2 60° 81% - - 54° 67.7° 57.8° - - -
4/25 9:10pm 259 1 G 3 60° 80% - - 54° 67.7° 57.8° - - -
4/25 9:00pm 218 1 G 3 60° 81% - - 54° 67.7° 57.8° - - -
4/25 8:50pm 243 2 G 4 60° 80% - - 54° 67.7° 57.8° - - -
4/25 8:40pm 234 2 G 4 60° 80% - - 54° 67.7° 57.8° - - -
4/25 8:30pm 208 2 G 4 60° 80% - - 54° 67.7° 57.8° - - -
4/25 8:20pm 188 3 G 4 60° 79% - - 54° 67.7° 57.8° - - -
4/25 8:10pm 262 2 G 5 61° 79% - - 54° 67.7° 57.8° - - -
4/25 8:00pm 260 3 G 6 61° 80% - - 54° 67.7° 57.8° - - -
4/25 7:50pm 236 3 G 5 61° 78% - - 54° 67.7° 57.8° - - -
4/25 7:40pm 315 0 G 1 62° 75% - - 54° 67.7° 57.8° - - -
4/25 7:30pm 351 1 G 2 62° 75% - - 54° 67.7° 57.8° - - -
4/25 7:20pm 320 1 G 2 62° 73% - - 53° 67.7° 57.8° - - -
4/25 7:10pm 326 3 G 5 62° 72% - - 53° 67.7° 57.8° - - -
4/25 7:00pm 333 5 G 8 63° 70% - - 52° 67.7° 57.8° - - -
4/25 6:50pm 308 4 G 7 63° 69% - - 53° 67.7° 57.8° - - -
4/25 6:40pm 308 3 G 6 64° 67% - - 52° 67.7° 57.8° - - -
4/25 6:30pm 281 4 G 7 64° 69% - - 53° 67.7° 57.8° - - -
4/25 6:20pm 259 4 G 8 63° 70% - - 53° 67.7° 57.8° - - -
4/25 6:10pm 236 5 G 9 63° 68% - - 53° 67.7° 57.8° - - -
4/25 6:00pm 246 4 G 9 64° 67% - - 53° 67.7° 57.8° - - -
4/25 5:50pm 242 5 G 10 65° 63% - - 52° 67.7° 57.8° - - -
4/25 5:40pm 252 3 G 8 65° 63% - - 52° 67.7° 57.8° - - -
4/25 5:30pm 260 5 G 11 65° 58% - - 50° 67.7° 57.8° - - -
4/25 5:20pm 262 5 G 12 65° 56% - - 49° 67.7° 57.8° - - -
4/25 5:10pm 261 4 G 9 64° 59% - - 50° 67.7° 57.8° - - -
4/25 5:00pm 244 5 G 10 64° 59% - - 50° 67.7° 57.8° - - -
4/25 4:50pm 243 6 G 12 64° 61% - - 50° 67.7° 57.8° - - -
4/25 4:40pm 241 5 G 12 64° 62% - - 51° 67.7° 57.8° - - -
4/25 4:30pm 258 6 G 13 64° 64% - - 52° 67.7° 57.8° - - -
4/25 4:20pm 250 5 G 12 64° 61% - - 51° 67.7° 57.8° - - -
4/25 4:10pm 267 7 G 15 65° 60% - - 51° 67.7° 57.8° - - -
4/25 4:00pm 259 6 G 14 66° 59% - - 51° 67.7° 57.8° - - -
4/25 3:50pm 269 6 G 14 66° 60% - - 52° 67.7° 57.8° - - -
4/25 3:40pm 271 5 G 13 66° 62% - - 53° 67.7° 57.8° - - -
4/25 3:30pm 276 7 G 16 66° 63% - - 53° 67.7° 57.8° - - -
4/25 3:20pm 274 5 G 13 66° 62% - - 53° 67.7° 57.8° - - -
4/25 3:10pm 278 6 G 13 65° 64% - - 53° 67.7° 57.8° - - -
4/25 3:00pm 254 6 G 10 65° 64% - - 53° 67.7° 57.8° - - -
4/25 2:50pm 257 6 G 11 65° 66% - - 53° 67.7° 57.8° - - -
4/25 2:40pm 250 6 G 12 66° 64% - - 54° 67.7° 57.8° - - -
4/25 2:30pm 265 5 G 14 66° 65% - - 54° 67.6° 57.8° - - -
4/25 2:20pm 249 8 G 15 66° 65% - - 54° 67.6° 57.8° - - -
4/25 2:10pm 267 6 G 12 67° 64% - - 54° 67.6° 57.8° - - -
4/25 2:00pm 268 6 G 12 66° 65% - - 54° 66.5° 57.8° - - -
4/25 1:50pm 249 6 G 14 65° 68% - - 54° 66.5° 57.8° - - -
4/25 1:40pm 261 5 G 11 65° 70% - - 55° 66.5° 57.8° - - -
4/25 1:30pm 280 7 G 14 65° 70% - - 55° 66.5° 57.8° - - -
4/25 1:20pm 241 7 G 13 64° 71% - - 55° 66.5° 57.8° - - -
4/25 1:10pm 251 6 G 15 65° 71% - - 55° 66.5° 57.8° - - -
4/25 1:00pm 246 6 G 15 64° 71% - - 54° 66.5° 57.8° - - -
4/25 12:50pm 257 6 G 14 65° 70% - - 55° 66.5° 57.8° - - -
4/25 12:40pm 272 5 G 13 65° 70% - - 55° 66.5° 57.8° - - -
4/25 12:30pm 287 6 G 12 65° 71% - - 56° 66.5° 57.8° - - -
4/25 12:20pm 272 6 G 12 65° 70% - - 55° 66.3° 57.8° - - -
4/25 12:10pm 276 7 G 14 65° 69% - - 54° 66.3° 57.8° - - -
4/25 12:00pm 272 7 G 14 65° 68% - - 54° 66.3° 57.8° - - -
4/25 11:50am 248 7 G 14 64° 68% - - 53° 66.3° 57.8° - - -
4/25 11:40am 261 5 G 14 65° 66% - - 53° 66.3° 57.8° - - -
4/25 11:30am 248 5 G 9 65° 67% - - 54° 66.3° 57.8° - - -
4/25 11:20am 251 4 G 12 65° 67% - - 54° 66.3° 57.8° - - -
4/25 11:10am 247 6 G 12 65° 68% - - 54° 66.1° 57.8° - - -
4/25 11:00am 215 7 G 11 65° 67% - - 53° 65.9° 57.8° - - -
4/25 10:50am 201 7 G 13 64° 67% - - 53° 65.7° 57.8° - - -
4/25 10:40am 205 6 G 10 64° 67% - - 53° 65.7° 57.8° - - -
4/25 10:30am 209 6 G 11 64° 68% - - 54° 65.7° 57.8° - - -
4/25 10:20am 205 8 G 12 63° 71% - - 53° 63.7° 57.8° - - -
4/25 10:10am 222 5 G 10 63° 72% - - 54° 63.4° 57.8° - - -
4/25 10:00am 216 6 G 10 62° 74% - - 54° 63.4° 57.8° - - -
4/25 9:50am 191 6 G 10 63° 74% - - 54° 63.4° 57.8° - - -
4/25 9:40am 190 7 G 11 62° 76% - - 55° 63° 57.8° - - -
4/25 9:30am 193 7 G 12 62° 79% - - 55° 62.6° 57.8° - - -
4/25 9:20am 189 8 G 12 61° 82% - - 55° 61.5° 57.8° - - -
4/25 9:10am 189 10 G 14 60° 83% - - 55° 61° 57.8° - - -
4/25 9:00am 189 10 G 14 60° 83% - - 55° 61° 57.8° - - -
4/25 8:50am 188 10 G 14 60° 83% - - 55° 60.9° 57.8° - - -
4/25 8:40am 182 12 G 17 60° 84% - - 55° 60.9° 57.8° - - -
4/25 8:30am 182 10 G 16 60° 84% - - 55° 60.9° 57.8° - - -
4/25 8:20am 183 10 G 15 60° 84% - - 55° 60.9° 57.8° - - -
4/25 8:10am 182 11 G 17 60° 83% - - 55° 60.9° 57.8° - - -
4/25 8:00am 190 10 G 17 60° 84% - - 55° 60.8° 57.8° - - -
4/25 7:50am 181 9 G 16 60° 85% - - 55° 60.6° 57.8° - - -
4/25 7:40am 183 9 G 15 59° 86% - - 55° 60.6° 57.8° - - -
4/25 7:30am 180 8 G 12 59° 86% - - 55° 60.6° 57.8° - - -
4/25 7:20am 181 6 G 12 60° 85% - - 55° 60.6° 57.8° - - -
4/25 7:10am 170 7 G 11 59° 85% - - 55° 60.6° 57.8° - - -
4/25 7:00am 170 6 G 11 59° 85% - - 55° 60.6° 57.8° - - -
4/25 6:50am 177 7 G 12 59° 85% - - 55° 60.6° 57.8° - - -
4/25 6:40am 179 7 G 11 59° 84% - - 55° 60.6° 57.8° - - -
4/25 6:30am 179 8 G 12 59° 84% - - 55° 60.6° 57.8° - - -
4/25 6:20am 186 7 G 11 59° 82% - - 54° 60.6° 57.8° - - -
4/25 6:10am 181 6 G 9 59° 82% - - 54° 60.6° 57.8° - - -
4/25 6:00am 184 7 G 10 59° 82% - - 54° 60.6° 57.8° - - -
4/25 5:50am 179 7 G 10 59° 82% - - 53° 60.6° 57.8° - - -
4/25 5:40am 181 7 G 9 59° 83% - - 53° 60.6° 57.8° - - -
4/25 5:30am 179 6 G 9 59° 83% - - 53° 60.6° 57.8° - - -
4/25 5:20am 177 6 G 8 59° 82% - - 53° 60.6° 57.8° - - -
4/25 5:10am 178 5 G 9 58° 82% - - 53° 60.6° 57.8° - - -
4/25 5:00am 178 6 G 8 59° 81% - - 53° 60.6° 57.8° - - -
4/25 4:50am 180 5 G 8 58° 82% - - 53° 60.6° 57.8° - - -
4/25 4:40am 165 5 G 7 58° 82% - - 53° 60.6° 57.9° - - -
4/25 4:30am 174 4 G 7 59° 82% - - 53° 60.6° 58° - - -
4/25 4:20am 164 4 G 7 59° 82% - - 53° 60.6° 58.2° - - -
4/25 4:10am 164 4 G 6 59° 82% - - 53° 60.6° 58.2° - - -
4/25 4:00am 176 4 G 6 59° 82% - - 53° 60.6° 58.4° - - -
4/25 3:50am 176 4 G 5 59° 82% - - 54° 60.6° 58.4° - - -
4/25 3:40am 171 4 G 6 59° 82% - - 53° 60.6° 58.4° - - -
4/25 3:30am 184 5 G 7 59° 82% - - 54° 60.6° 58.4° - - -
4/25 3:20am 190 5 G 7 59° 83% - - 54° 60.6° 58.4° - - -
4/25 3:10am 195 5 G 7 59° 83% - - 54° 60.6° 58.4° - - -
4/25 3:00am 188 5 G 8 59° 83% - - 54° 60.6° 58.4° - - -
4/25 2:50am 186 4 G 7 59° 84% - - 54° 60.6° 58.4° - - -
4/25 2:40am 185 5 G 7 59° 84% - - 54° 60.6° 58.4° - - -
4/25 2:30am 190 6 G 8 59° 82% - - 54° 60.6° 58.5° - - -
4/25 2:20am 191 8 G 11 59° 80% - - 53° 60.6° 58.6° - - -
4/25 2:10am 191 8 G 12 60° 77% - - 53° 60.6° 59° - - -
4/25 2:00am 186 9 G 12 60° 77% - - 53° 60.6° 59.2° - - -
4/25 1:50am 185 8 G 13 60° 76% - - 52° 60.6° 59.3° - - -
4/25 1:40am 186 8 G 12 60° 76% - - 52° 60.6° 59.3° - - -
4/25 1:30am 183 7 G 10 60° 76% - - 52° 60.6° 59.3° - - -
4/25 1:20am 185 6 G 10 60° 75% - - 52° 60.6° 59.3° - - -
4/25 1:10am 192 6 G 9 60° 74% - - 52° 60.6° 59.3° - - -
4/25 1:00am 186 4 G 6 60° 73% - - 51° 60.6° 59.3° - - -
4/25 12:50am 178 5 G 9 60° 73% - - 51° 60.6° 59.3° - - -
4/25 12:40am 184 6 G 9 60° 75% - - 52° 60.5° 59.3° - - -
4/25 12:30am 200 7 G 11 60° 76% - - 52° 60.5° 59.3° - - -
4/25 12:20am 200 8 G 11 60° 76% - - 52° 60.5° 59.3° - - -
4/25 12:10am 200 7 G 10 60° 76% - - 52° 60.5° 59.4° - - -
4/25 12:00am 200 6 G 10 60° 75% - - 52° 69.3° 58.1° - - -
4/24 11:50pm 212 6 G 10 60° 76% - - 52° 69.3° 58.1° - - -
4/24 11:40pm 234 5 G 12 60° 77% - - 53° 69.3° 58.1° - - -
4/24 11:30pm 206 6 G 10 60° 78% - - 53° 69.3° 58.1° - - -
4/24 11:20pm 198 6 G 9 60° 77% - - 53° 69.3° 58.1° - - -
4/24 11:10pm 195 6 G 11 60° 77% - - 53° 69.3° 58.1° - - -
4/24 11:00pm 200 6 G 9 60° 76% - - 52° 69.3° 58.1° - - -
4/24 10:50pm 203 4 G 7 60° 75% - - 52° 69.3° 58.1° - - -
4/24 10:40pm 189 6 G 8 60° 76% - - 52° 69.3° 58.1° - - -
4/24 10:30pm 190 7 G 9 60° 77% - - 53° 69.3° 58.1° - - -
4/24 10:20pm 200 7 G 10 60° 77% - - 52° 69.3° 58.1° - - -
4/24 10:10pm 196 7 G 10 60° 76% - - 52° 69.3° 58.1° - - -
4/24 10:00pm 195 7 G 9 60° 77% - - 53° 69.3° 58.1° - - -
4/24 9:50pm 208 6 G 10 60° 77% - - 53° 69.3° 58.1° - - -
4/24 9:40pm 206 6 G 8 60° 76% - - 52° 69.3° 58.1° - - -
4/24 9:30pm 213 5 G 7 60° 76% - - 52° 69.3° 58.1° - - -
4/24 9:20pm 224 6 G 9 60° 76% - - 52° 69.3° 58.1° - - -
4/24 9:10pm 229 5 G 9 60° 77% - - 53° 69.3° 58.1° - - -
4/24 9:00pm 229 6 G 10 60° 77% - - 53° 69.3° 58.1° - - -
4/24 8:50pm 211 5 G 7 61° 77% - - 54° 69.3° 58.1° - - -
4/24 8:40pm 208 4 G 6 61° 76% - - 53° 69.3° 58.1° - - -
4/24 8:30pm 190 5 G 7 61° 75% - - 53° 69.3° 58.1° - - -
4/24 8:20pm 184 5 G 7 61° 75% - - 53° 69.3° 58.1° - - -
4/24 8:10pm 179 4 G 5 61° 74% - - 53° 69.3° 58.1° - - -
4/24 8:00pm 189 5 G 7 61° 75% - - 53° 69.3° 58.1° - - -
4/24 7:50pm 208 4 G 8 61° 75% - - 53° 69.3° 58.1° - - -
4/24 7:40pm 220 3 G 6 61° 77% - - 54° 69.3° 58.1° - - -
4/24 7:30pm 237 4 G 9 61° 78% - - 54° 69.3° 58.1° - - -
4/24 7:20pm 222 7 G 10 61° 77% - - 54° 69.3° 58.1° - - -
4/24 7:10pm 240 4 G 8 61° 78% - - 54° 69.3° 58.1° - - -
4/24 7:00pm 241 4 G 8 61° 78% - - 54° 69.3° 58.1° - - -
4/24 6:50pm 237 4 G 7 61° 78% - - 54° 69.3° 58.1° - - -
4/24 6:40pm 251 3 G 6 62° 78% - - 54° 69.3° 58.1° - - -
4/24 6:30pm 267 3 G 8 62° 77% - - 54° 69.3° 58.1° - - -
4/24 6:20pm 274 4 G 8 62° 76% - - 54° 69.3° 58.1° - - -
4/24 6:10pm 245 3 G 8 62° 74% - - 54° 69.3° 58.1° - - -
4/24 6:00pm 249 4 G 9 62° 74% - - 54° 69.3° 58.1° - - -